x

Lake Simcoe (45151) Wave Buoy

5:00am - Mon 28th Jul 2014 All times are CDT. -5 hours from GMT.

  • Sig Wave height 1.0ft
  • Peak Period 2s
  • Wind
    16mph, 20mph gusts
  • Sea Temp 70°f
  • Air Temp 61°f
  • Sea Pressure 1006.1mb
  • Lake Simcoe
  • Lake Simcoe

More Historic Weather Station data

Upgrade to MSW Pro to gain access to the past 30 days of data for over 8000 Wavebouys and Weather Stations around the globe.

Join Pro

Comparision Forecast

View Surf forecast
   
Mon 07/28 5:00am 1ft 2s 16 20 mph 1006.1mb 70f 61f
4:00am 1.3ft 2s 16 18 mph 1005.4mb 70f 62f
3:00am 1.3ft 3s 16 20 mph 1004.8mb 70f 64f
2:00am 1.3ft 2s 18 20 mph 1004.3mb 70f 65f
1:00am 1ft 2s 18 20 mph 1004.5mb 70f 67f
12:00am 0.7ft 2s 13 16 mph 1004.7mb 70f 67f
Sun 07/27 11:00pm 0.7ft 2s 11 13 mph 1004.9mb 70f 67f
10:00pm 0.7ft 2s 9 11 mph 1005.2mb 71f 68f
9:00pm 0.7ft 2s 9 13 mph 1004.7mb 71f 69f
8:00pm 0.7ft 2s 13 16 mph 1004mb 71f 70f
7:00pm 0.7ft 2s 13 16 mph 1003.9mb 71f 72f
6:00pm 0.7ft 2s 13 16 mph 1003.6mb 71f 73f
5:00pm 0.7ft 2s 13 18 mph 1003.8mb 72f 73f
4:00pm 0.3ft 2s 9 13 mph 1004mb 73f 74f
3:00pm 0.3ft 2s 7
mph
1004.2mb 72f 73f
2:00pm 0.3ft 2s 2
mph
1005mb 71f 73f
1:00pm 0.3ft 2s 9 11 mph 1005.5mb 71f 71f
12:00pm 0.3ft 2s 7 9 mph 1005.6mb 71f 71f
11:00am 0.3ft 2s 7 9 mph 1005.7mb 70f 70f
10:00am 0.3ft 2s 4 11 mph 1005.8mb 70f 69f
9:00am 0.3ft 2s 11 13 mph 1005.7mb 69f 67f
8:00am 0.7ft 2s 13 18 mph 1005.6mb 69f 66f
7:00am 0.7ft 2s 11 16 mph 1005.4mb 69f 65f
6:00am 1ft 2s 13 20 mph 1005.3mb 69f 65f
5:00am 0.7ft 2s 18 20 mph 1004.8mb 69f 66f
4:00am 0.7ft 2s 9 13 mph 1004.5mb 69f 67f
3:00am 0.7ft 2s 11 16 mph 1004.6mb 69f 67f
2:00am 0.7ft 2s 11
mph
1005mb 69f 67f
1:00am 0.7ft 2s 9 11 mph 1005.7mb 69f 66f
12:00am 0.7ft 2s 7 11 mph 1006.8mb 69f 68f
Sat 07/26 11:00pm 0.7ft 2s 7 9 mph 1006.8mb 70f 68f
10:00pm 0.7ft 2s 11 13 mph 1007.1mb 70f 71f
9:00pm 0.7ft 2s 9 11 mph 1008mb 70f 71f
8:00pm 0.3ft 2s 9 11 mph 1008.3mb 70f 71f
7:00pm 0.3ft 2s 4 7 mph 1008.2mb 70f 71f
6:00pm 0.7ft 2s 4 7 mph 1008.5mb 70f 72f
5:00pm 0.7ft 2s 4 7 mph 1008.8mb 70f 72f
4:00pm 0.7ft 2s 7
mph
1009.6mb 70f 72f
3:00pm 0.3ft 2s 7 9 mph 1009.6mb 70f 72f
2:00pm 0.7ft 2s 4 7 mph 1010.6mb 70f 71f
1:00pm 0.3ft 2s 9 11 mph 1010.9mb 70f 70f
12:00pm 0.7ft 2s 7
mph
1011.5mb 70f 69f
11:00am 0.7ft 2s 11 13 mph 1012.3mb 69f 67f
10:00am 0.3ft 2s 9 11 mph 1012.5mb 69f 67f
9:00am 0.3ft 2s 9
mph
1012.5mb 69f 65f
8:00am 0.3ft 2s 2 4 mph 1013.1mb 69f 64f
7:00am 0.7ft 2s 7 9 mph 1013.4mb 69f 64f
6:00am 0.7ft 2s 9 11 mph 1013.4mb 69f 64f
5:00am 0.7ft 2s 9 13 mph 1013.1mb 69f 64f
4:00am 0.7ft 2s 11 13 mph 1012.7mb 69f 65f
3:00am 1ft 3s 11 13 mph 1012.6mb 69f 65f
2:00am 1ft 3s 13 16 mph 1012.6mb 69f 65f
1:00am 1ft 3s 13 16 mph 1013mb 69f 66f
12:00am 0.7ft 2s 13 16 mph 1013.4mb 69f 67f
Fri 07/25 11:00pm 0.7ft 2s 7 9 mph 1013.6mb 69f 67f
10:00pm 0.3ft 2s 7 9 mph 1013.6mb 70f 68f
9:00pm 0.3ft 2s 2 4 mph 1013.7mb 70f 68f
8:00pm 0.7ft 2s 4
mph
1013.3mb 70f 69f
7:00pm 0.7ft 2s 9
mph
1013.4mb 70f 71f
6:00pm 0.7ft 2s 9 11 mph 1013.4mb 70f 72f
5:00pm 0.7ft 2s 11 13 mph 1013.5mb 70f 73f
4:00pm 0.3ft 2s 9 11 mph 1013.8mb 70f 72f
3:00pm 0.7ft 2s 9 11 mph 1014.4mb 70f 72f
2:00pm 0.3ft 2s 9 11 mph 1015mb 70f 71f
1:00pm 0.7ft 2s 9 11 mph 1015.4mb 70f 69f
12:00pm 0.7ft 2s 9 11 mph 1015.9mb 69f 69f
11:00am 0.3ft 2s 11 13 mph 1016.9mb 69f 69f
10:00am 0.3ft 2s 9 11 mph 1017.3mb 69f 66f
9:00am 0.7ft 2s 7 9 mph 1017.3mb 69f 64f
8:00am 0.7ft 2s 9
mph
1017.4mb 69f 62f
7:00am 0.3ft 2s 7 9 mph 1017.6mb 69f 62f
6:00am 0.3ft 2s 9 11 mph 1017.4mb 69f 61f
5:00am 0.3ft 2s 7 9 mph 1016.8mb 69f 60f
4:00am 0.3ft 2s 9 11 mph 1016.4mb 69f 61f
3:00am 0.3ft 2s 7
mph
1016.2mb 69f 62f
2:00am 0.3ft 2s 4 7 mph 1016.4mb 69f 62f
1:00am 0.3ft 2s 7 9 mph 1016.6mb 69f 62f
12:00am 0.3ft 2s 7 9 mph 1017.1mb 69f 63f
Thu 07/24 11:00pm 0.7ft 2s 9 13 mph 1017.2mb 70f 63f
10:00pm 0.7ft 2s 13 18 mph 1017.2mb 70f 63f
9:00pm 0.3ft 2s 13 18 mph 1016.9mb 70f 64f
8:00pm 0.3ft 2s 9 11 mph 1016.2mb 70f 65f
7:00pm 0.7ft 2s 9 11 mph 1016.1mb 70f 66f
6:00pm 0.7ft 2s 11 13 mph 1016.3mb 70f 67f
5:00pm 0.7ft 2s 13 16 mph 1016.4mb 71f 68f
4:00pm 0.3ft 2s 13 18 mph 1016.7mb 71f 68f
3:00pm 0.3ft 3s 4 9 mph 1017.1mb 71f 69f
2:00pm 0.3ft 3s 7 9 mph 1017.4mb 71f 69f
1:00pm 0.3ft 2s 9 13 mph 1017.6mb 70f 68f
12:00pm 0.3ft 2s 9 13 mph 1017.9mb 70f 67f